createdAt,value
2019-05-02T00:00:53.090Z,5.65
2019-05-02T00:06:50.113Z,6.03
2019-05-02T00:13:15.659Z,6.47
2019-05-02T00:26:30.191Z,6.47
2019-05-02T00:36:22.173Z,6.40
2019-05-02T00:49:30.845Z,4.95
2019-05-02T01:06:14.486Z,4.92
2019-05-02T01:09:25.744Z,4.87
2019-05-02T01:21:44.515Z,4.67
2019-05-02T01:28:23.595Z,4.90
2019-05-02T01:31:34.424Z,5.72
2019-05-02T01:38:18.001Z,5.55
2019-05-02T01:40:55.190Z,5.65
2019-05-02T01:47:35.779Z,5.42
2019-05-02T01:57:08.674Z,5.30
2019-05-02T02:12:09.723Z,5.65
2019-05-02T02:18:06.338Z,5.72
2019-05-02T02:21:02.283Z,5.50
2019-05-02T02:51:46.427Z,5.90
2019-05-02T03:05:25.869Z,5.35
2019-05-02T03:07:59.780Z,5.75
2019-05-02T03:10:40.010Z,5.60
2019-05-02T03:13:28.609Z,5.45
2019-05-02T03:16:21.484Z,6.55
2019-05-02T03:22:20.479Z,6.10
2019-05-02T03:28:35.503Z,5.85
2019-05-02T03:34:46.490Z,6.50
2019-05-02T03:37:13.720Z,6.17
2019-05-02T03:49:23.397Z,6.42
2019-05-02T03:52:02.821Z,6.87
2019-05-02T03:54:48.358Z,6.15
2019-05-02T03:57:17.858Z,6.70
2019-05-02T03:59:55.557Z,7.80
2019-05-02T04:02:35.234Z,6.67
2019-05-02T04:05:17.098Z,6.58
2019-05-02T04:08:04.375Z,6.20
2019-05-02T04:14:37.518Z,6.42
2019-05-02T04:20:49.629Z,6.30
2019-05-02T04:23:29.879Z,6.80
2019-05-02T04:30:09.744Z,7.60
2019-05-02T04:36:29.151Z,6.97
2019-05-02T04:45:26.449Z,7.00
2019-05-02T04:55:18.256Z,7.35
2019-05-02T05:01:43.413Z,7.95
2019-05-02T05:04:27.642Z,7.25
2019-05-02T05:07:31.089Z,7.15
2019-05-02T05:21:11.111Z,7.80
2019-05-02T05:27:22.853Z,7.95
2019-05-02T05:29:59.510Z,8.08
2019-05-02T05:32:39.417Z,7.65
2019-05-02T05:38:58.296Z,7.87
2019-05-02T05:47:37.820Z,8.10
2019-05-02T05:53:40.489Z,8.25
2019-05-02T05:56:39.695Z,8.10
2019-05-02T06:02:50.075Z,7.72
2019-05-02T06:08:22.263Z,9.55
2019-05-02T06:14:09.552Z,8.20
2019-05-02T06:16:46.691Z,8.40
2019-05-02T06:19:27.439Z,8.93
2019-05-02T06:22:15.950Z,9.18
2019-05-02T06:28:19.557Z,9.08
2019-05-02T06:34:21.215Z,10.05
2019-05-02T06:40:23.714Z,10.93
2019-05-02T06:43:04.313Z,9.65
2019-05-02T06:49:15.690Z,9.50
2019-05-02T06:55:17.886Z,8.90
2019-05-02T07:01:10.550Z,9.55
2019-05-02T07:03:55.401Z,9.95
2019-05-02T07:10:25.443Z,9.13
2019-05-02T07:31:32.875Z,8.45
2019-05-02T07:37:30.465Z,8.98
2019-05-02T07:40:03.157Z,9.55
2019-05-02T07:45:45.293Z,9.05
2019-05-02T07:58:06.978Z,9.43
2019-05-02T08:00:41.585Z,9.05
2019-05-02T08:06:44.670Z,7.85
2019-05-02T08:12:52.219Z,8.73
2019-05-02T08:15:28.075Z,6.90
2019-05-02T08:18:03.765Z,7.40
2019-05-02T08:20:43.714Z,8.35
2019-05-02T08:23:25.552Z,7.30
2019-05-02T08:25:58.298Z,8.40
2019-05-02T08:28:51.847Z,8.38
2019-05-02T08:31:25.115Z,7.78
2019-05-02T08:37:07.784Z,8.20
2019-05-02T08:43:15.779Z,9.13
2019-05-02T08:48:59.342Z,9.43
2019-05-02T08:51:37.971Z,9.43
2019-05-02T08:54:15.252Z,9.43
2019-05-02T08:56:48.431Z,8.85
2019-05-02T08:59:28.041Z,9.08
2019-05-02T09:02:07.209Z,8.80
2019-05-02T09:04:43.270Z,8.83
2019-05-02T09:07:19.347Z,9.05
2019-05-02T09:10:05.317Z,9.18
2019-05-02T09:12:36.788Z,8.85
2019-05-02T09:18:30.087Z,9.00
2019-05-02T09:24:45.281Z,9.60
2019-05-02T09:27:22.506Z,8.55
2019-05-02T09:30:12.013Z,10.15
2019-05-02T09:36:17.204Z,10.00
2019-05-02T09:38:57.584Z,9.80
2019-05-02T09:44:55.403Z,8.83
2019-05-02T09:50:41.966Z,9.70
2019-05-02T09:53:20.632Z,9.13
2019-05-02T09:55:57.962Z,8.80
2019-05-02T09:58:36.540Z,8.43
2019-05-02T10:01:22.604Z,9.20
2019-05-02T10:03:54.429Z,9.05
2019-05-02T10:10:02.349Z,10.40
2019-05-02T10:16:01.806Z,8.30
2019-05-02T10:18:45.039Z,9.60
2019-05-02T10:21:27.757Z,9.40
2019-05-02T10:30:47.508Z,8.70
2019-05-02T10:37:00.397Z,8.05
2019-05-02T10:39:44.653Z,7.42
2019-05-02T10:45:52.727Z,8.43
2019-05-02T10:51:58.271Z,8.28
2019-05-02T11:00:52.441Z,6.08
2019-05-02T11:07:02.485Z,6.20
2019-05-02T11:12:57.176Z,6.92
2019-05-02T11:15:42.348Z,6.62
2019-05-02T11:22:02.885Z,5.53
2019-05-02T11:28:21.876Z,8.28
2019-05-02T11:31:10.071Z,6.87
2019-05-02T11:37:34.870Z,7.45
2019-05-02T11:46:27.001Z,6.97
2019-05-02T11:49:19.044Z,10.00
2019-05-02T11:52:18.188Z,10.10
2019-05-02T11:58:19.485Z,10.18
2019-05-02T12:11:47.470Z,8.95
2019-05-02T12:14:22.961Z,9.43
2019-05-02T12:17:04.750Z,9.58
2019-05-02T12:19:50.025Z,9.75
2019-05-02T12:22:32.466Z,9.08
2019-05-02T12:31:52.057Z,8.95
2019-05-02T12:34:30.227Z,8.15
2019-05-02T12:37:24.393Z,8.55
2019-05-02T12:40:18.984Z,8.15
2019-05-02T12:43:03.773Z,8.85
2019-05-02T12:49:28.094Z,7.65
2019-05-02T12:55:25.549Z,6.10
2019-05-02T12:58:21.739Z,6.85
2019-05-02T13:04:16.598Z,8.50
2019-05-02T13:10:18.638Z,7.05
2019-05-02T13:13:05.648Z,6.47
2019-05-02T13:15:43.499Z,6.20
2019-05-02T13:18:18.649Z,6.75
2019-05-02T13:20:59.312Z,6.67
2019-05-02T13:23:57.045Z,7.00
2019-05-02T13:30:12.886Z,6.75
2019-05-02T13:36:09.054Z,7.05
2019-05-02T13:38:53.495Z,7.35
2019-05-02T13:41:44.025Z,6.70
2019-05-02T13:44:41.874Z,6.37
2019-05-02T13:57:19.119Z,5.53
2019-05-02T14:00:02.984Z,5.53
2019-05-02T14:09:44.050Z,5.30
2019-05-02T14:15:26.722Z,5.00
2019-05-02T14:28:16.065Z,3.10
2019-05-02T14:30:56.624Z,3.35
2019-05-02T14:37:01.924Z,2.33
2019-05-02T14:43:43.059Z,2.10
2019-05-02T14:46:22.138Z,2.00
2019-05-02T14:58:49.128Z,2.35
2019-05-02T15:01:26.279Z,1.92
2019-05-02T15:14:22.408Z,1.85
2019-05-02T15:16:58.692Z,2.25
2019-05-02T15:22:55.867Z,2.62
2019-05-02T15:25:27.471Z,2.17
2019-05-02T15:27:59.936Z,2.27
2019-05-02T15:30:28.349Z,2.13
2019-05-02T15:32:59.534Z,2.12
2019-05-02T15:35:39.429Z,2.45
2019-05-02T15:38:09.127Z,2.10
2019-05-02T15:40:47.381Z,2.12
2019-05-02T15:43:10.048Z,2.27
2019-05-02T15:45:41.998Z,2.42
2019-05-02T15:48:14.600Z,2.40
2019-05-02T15:50:52.040Z,2.30
2019-05-02T15:53:15.623Z,2.23
2019-05-02T15:55:45.263Z,2.50
2019-05-02T15:58:22.419Z,2.30
2019-05-02T16:01:05.703Z,2.60
2019-05-02T16:03:48.711Z,2.67
2019-05-02T16:06:21.840Z,3.95
2019-05-02T16:08:51.757Z,2.65
2019-05-02T16:11:22.872Z,3.87
2019-05-02T16:13:55.848Z,2.60
2019-05-02T16:16:23.938Z,2.75
2019-05-02T16:18:53.572Z,2.77
2019-05-02T16:21:30.091Z,3.42
2019-05-02T16:24:16.475Z,3.25
2019-05-02T16:26:46.986Z,2.92
2019-05-02T16:29:23.748Z,3.30
2019-05-02T16:31:59.828Z,3.27
2019-05-02T16:34:33.921Z,3.27
2019-05-02T16:37:16.625Z,3.10
2019-05-02T16:39:49.463Z,3.52
2019-05-02T16:42:14.006Z,3.67
2019-05-02T16:44:43.630Z,3.75
2019-05-02T16:47:14.009Z,3.87
2019-05-02T16:49:48.023Z,3.50
2019-05-02T16:52:16.174Z,3.80
2019-05-02T16:54:45.977Z,3.80
2019-05-02T16:57:17.343Z,3.15
2019-05-02T16:59:47.874Z,3.35
2019-05-02T17:02:17.578Z,3.10
2019-05-02T17:04:47.147Z,3.00
2019-05-02T17:07:18.339Z,2.67
2019-05-02T17:09:49.527Z,2.80
2019-05-02T17:12:19.079Z,2.83
2019-05-02T17:15:07.779Z,2.75
2019-05-02T17:17:37.429Z,2.50
2019-05-02T17:20:15.019Z,2.98
2019-05-02T17:22:38.688Z,2.77
2019-05-02T17:25:08.471Z,2.70
2019-05-02T17:27:38.035Z,3.08
2019-05-02T17:30:11.922Z,3.20
2019-05-02T17:32:41.538Z,3.25
2019-05-02T17:35:14.630Z,3.20
2019-05-02T17:37:48.569Z,2.60
2019-05-02T17:40:16.873Z,3.00
2019-05-02T17:42:47.264Z,3.20
2019-05-02T17:45:17.247Z,3.20
2019-05-02T17:47:47.354Z,3.00
2019-05-02T17:50:19.541Z,3.40
2019-05-02T17:52:50.828Z,3.20
2019-05-02T17:55:21.503Z,2.98
2019-05-02T17:57:51.652Z,3.42
2019-05-02T18:00:23.047Z,3.37
2019-05-02T18:02:53.347Z,3.45
2019-05-02T18:05:26.451Z,3.15
2019-05-02T18:07:55.314Z,3.72
2019-05-02T18:10:25.190Z,3.33
2019-05-02T18:12:59.642Z,3.30
2019-05-02T18:15:29.867Z,3.45
2019-05-02T18:17:59.905Z,3.70
2019-05-02T18:20:29.469Z,4.08
2019-05-02T18:22:59.139Z,3.98
2019-05-02T18:25:28.675Z,3.77
2019-05-02T18:27:59.180Z,3.83
2019-05-02T18:30:28.797Z,3.98
2019-05-02T18:33:03.605Z,3.83
2019-05-02T18:35:29.570Z,4.60
2019-05-02T18:38:00.244Z,3.30
2019-05-02T18:40:31.996Z,3.75
2019-05-02T18:43:04.259Z,4.78
2019-05-02T18:45:32.546Z,4.12
2019-05-02T18:48:06.568Z,3.35
2019-05-02T18:50:44.353Z,2.92
2019-05-02T18:53:10.786Z,3.10
2019-05-02T18:55:42.164Z,2.92
2019-05-02T18:58:12.861Z,2.92
2019-05-02T19:00:42.648Z,2.67
2019-05-02T19:03:16.842Z,2.92
2019-05-02T19:05:46.371Z,2.85
2019-05-02T19:08:14.980Z,3.17
2019-05-02T19:11:01.406Z,2.90
2019-05-02T19:13:15.849Z,3.12
2019-05-02T19:15:48.909Z,3.60
2019-05-02T19:18:17.880Z,3.52
2019-05-02T19:20:57.438Z,3.33
2019-05-02T19:23:25.258Z,2.98
2019-05-02T19:25:55.281Z,3.10
2019-05-02T19:28:29.047Z,2.67
2019-05-02T19:31:03.050Z,3.30
2019-05-02T19:35:58.744Z,2.90
2019-05-02T19:38:28.357Z,3.17
2019-05-02T19:41:05.517Z,3.02
2019-05-02T19:43:32.406Z,2.97
2019-05-02T19:46:02.369Z,2.70
2019-05-02T19:48:32.921Z,2.90
2019-05-02T19:51:03.261Z,2.73
2019-05-02T19:53:32.872Z,3.00
2019-05-02T19:56:03.049Z,3.02
2019-05-02T19:58:36.711Z,3.20
2019-05-02T20:01:06.290Z,2.98
2019-05-02T20:03:36.034Z,2.92
2019-05-02T20:06:06.239Z,3.20
2019-05-02T20:08:35.922Z,2.52
2019-05-02T20:11:05.762Z,2.90
2019-05-02T20:13:35.361Z,2.60
2019-05-02T20:16:11.690Z,2.60
2019-05-02T20:18:43.841Z,2.55
2019-05-02T20:21:27.916Z,2.90
2019-05-02T20:23:56.897Z,3.02
2019-05-02T20:26:26.440Z,2.42
2019-05-02T20:28:56.055Z,2.98
2019-05-02T20:31:25.588Z,2.50
2019-05-02T20:33:55.255Z,2.67
2019-05-02T20:36:24.892Z,2.52
2019-05-02T20:38:54.568Z,2.80
2019-05-02T20:41:24.070Z,2.75
2019-05-02T20:43:53.610Z,2.35
2019-05-02T20:46:23.115Z,4.10
2019-05-02T20:48:52.768Z,2.33
2019-05-02T20:51:23.237Z,2.27
2019-05-02T20:53:52.875Z,3.00
2019-05-02T20:56:23.625Z,2.40
2019-05-02T20:58:53.147Z,2.27
2019-05-02T21:01:22.786Z,2.22
2019-05-02T21:03:52.366Z,2.30
2019-05-02T21:06:40.833Z,2.55
2019-05-02T21:09:05.338Z,2.20
2019-05-02T21:11:36.055Z,2.15
2019-05-02T21:14:05.677Z,1.92
2019-05-02T21:16:35.243Z,2.10
2019-05-02T21:19:05.022Z,2.00
2019-05-02T21:21:34.866Z,2.33
2019-05-02T21:24:04.721Z,2.00
2019-05-02T21:26:34.302Z,1.87
2019-05-02T21:29:03.912Z,1.75
2019-05-02T21:31:33.417Z,1.82
2019-05-02T21:34:03.203Z,2.40
2019-05-02T21:36:32.768Z,2.00
2019-05-02T21:39:02.797Z,1.80
2019-05-02T21:41:33.853Z,2.02
2019-05-02T21:44:03.506Z,2.12
2019-05-02T21:46:34.054Z,2.10
2019-05-02T21:49:04.076Z,1.87
2019-05-02T21:51:37.945Z,1.80
2019-05-02T21:54:14.779Z,2.10
2019-05-02T21:56:45.993Z,1.90
2019-05-02T21:59:15.605Z,2.10
2019-05-02T22:01:49.332Z,2.22
2019-05-02T22:04:19.053Z,2.05
2019-05-02T22:06:48.775Z,2.20
2019-05-02T22:09:19.325Z,1.75
2019-05-02T22:11:48.992Z,1.70
2019-05-02T22:14:18.707Z,2.37
2019-05-02T22:16:48.388Z,1.67
2019-05-02T22:19:18.005Z,2.22
2019-05-02T22:21:47.624Z,1.85
2019-05-02T22:24:17.138Z,1.70
2019-05-02T22:26:46.715Z,1.87
2019-05-02T22:29:16.234Z,1.87
2019-05-02T22:31:45.870Z,2.08
2019-05-02T22:34:15.393Z,2.00
2019-05-02T22:36:44.953Z,2.22
2019-05-02T22:39:33.908Z,1.85
2019-05-02T22:42:04.701Z,2.27
2019-05-02T22:44:34.416Z,2.27
2019-05-02T22:47:05.145Z,2.42
2019-05-02T22:49:34.829Z,2.10
2019-05-02T22:52:04.590Z,2.17
2019-05-02T22:54:34.230Z,2.40
2019-05-02T22:57:03.899Z,2.45
2019-05-02T22:59:33.540Z,2.27
2019-05-02T23:02:03.196Z,2.15
2019-05-02T23:04:32.755Z,2.40
2019-05-02T23:07:02.554Z,2.42
2019-05-02T23:09:33.186Z,2.35
2019-05-02T23:12:03.094Z,2.33
2019-05-02T23:14:32.765Z,2.20
2019-05-02T23:17:02.440Z,2.35
2019-05-02T23:19:33.053Z,2.70
2019-05-02T23:22:02.705Z,2.25
2019-05-02T23:24:42.655Z,2.50
2019-05-02T23:27:13.824Z,3.00
2019-05-02T23:29:43.394Z,2.57
2019-05-02T23:32:12.994Z,2.25
2019-05-02T23:34:42.517Z,2.65
2019-05-02T23:37:12.119Z,2.77
2019-05-02T23:39:41.866Z,2.67
2019-05-02T23:42:13.407Z,3.40
2019-05-02T23:44:42.651Z,2.83
2019-05-02T23:47:12.323Z,2.98
2019-05-02T23:49:42.711Z,2.90
2019-05-02T23:52:13.249Z,3.10
2019-05-02T23:54:50.122Z,3.33
2019-05-02T23:57:13.994Z,3.10
2019-05-02T23:59:43.517Z,3.17
